Time;durP1;ratioP1;P1;durP2;ratioP2;P2;SDS_P1;SDS_P2;PMS_P1;PMS_P2;Temp;Humidity;BMP_temperature;BMP_pressure;BME280_temperature;BME280_humidity;BME280_pressure;Samples;Min_cycle;Max_cycle;Signal;HPM_P1;HPM_P2
2023/12/13 00:00:32;;;;;;;;;;;;;;;20.19;37.08;94279.72;10464312;28;2805;-48
2023/12/13 00:05:34;;;;;;;;;;;;;;;20.17;37.11;94271.38;10455345;28;3288;-46
2023/12/13 00:10:38;;;;;;;;;;;;;;;20.15;37.03;94273.53;10459721;28;2898;-45
2023/12/13 00:15:38;;;;;;;;;;;;;;;20.15;36.79;94274.28;10459819;28;2924;-47
2023/12/13 00:20:38;;;;;;;;;;;;;;;20.11;37.17;94262.06;10467341;28;2823;-45
2023/12/13 00:25:39;;;;;;;;;;;;;;;20.08;37.06;94254.78;10464546;28;2912;-48
2023/12/13 00:30:39;;;;;;;;;;;;;;;20.04;36.86;94256.47;10466985;28;3156;-49
2023/12/13 00:35:40;;;;;;;;;;;;;;;20.03;37.04;94255.69;10464993;28;2937;-45
2023/12/13 00:40:40;;;;;;;;;;;;;;;20.03;36.94;94273.34;10462114;28;2835;-45
2023/12/13 00:45:40;;;;;;;;;;;;;;;20.00;36.95;94272.09;10462274;28;4837;-50
2023/12/13 00:50:41;;;;;;;;;;;;;;;19.99;36.95;94261.88;10461267;28;2823;-45
2023/12/13 00:55:41;;;;;;;;;;;;;;;19.97;37.03;94267.41;10463475;28;2890;-49
2023/12/13 01:00:42;;;;;;;;;;;;;;;19.95;37.00;94259.06;10457534;28;2918;-49
2023/12/13 01:05:42;;;;;;;;;;;;;;;19.93;36.99;94260.44;10457296;28;3215;-47
2023/12/13 01:10:42;;;;;;;;;;;;;;;19.93;37.00;94255.19;10458257;28;2862;-49
2023/12/13 01:15:43;;;;;;;;;;;;;;;19.90;36.93;94264.47;10457619;28;2788;-50
2023/12/13 01:20:43;;;;;;;;;;;;;;;19.90;37.00;94261.06;10458746;28;2870;-47
2023/12/13 01:25:43;;;;;;;;;;;;;;;19.87;37.04;94264.28;10464730;28;2806;-46
2023/12/13 01:30:44;;;;;;;;;;;;;;;19.87;37.02;94264.28;10479322;28;2892;-50
2023/12/13 01:35:44;;;;;;;;;;;;;;;19.85;36.94;94263.81;10472362;28;2946;-46
2023/12/13 01:40:50;;;;;;;;;;;;;;;19.82;36.96;94269.69;10471927;28;2853;-45
2023/12/13 01:45:52;;;;;;;;;;;;;;;19.80;36.99;94277.13;10463231;28;5477;-45
2023/12/13 01:50:53;;;;;;;;;;;;;;;19.79;36.98;94275.53;10504442;28;2791;-47
2023/12/13 01:55:54;;;;;;;;;;;;;;;19.78;37.16;94276.66;10458422;28;2888;-46
2023/12/13 02:00:55;;;;;;;;;;;;;;;19.75;37.13;94270.13;10466764;28;2841;-49
2023/12/13 02:05:55;;;;;;;;;;;;;;;19.74;37.03;94273.06;10462150;28;2883;-48
2023/12/13 02:10:56;;;;;;;;;;;;;;;19.74;37.05;94280.97;10472995;28;2873;-49
2023/12/13 02:15:56;;;;;;;;;;;;;;;19.72;37.13;94275.97;10460471;28;2830;-46
2023/12/13 02:20:56;;;;;;;;;;;;;;;19.69;37.11;94265.31;10465566;28;2931;-49
2023/12/13 02:25:58;;;;;;;;;;;;;;;19.70;36.95;94267.63;10468596;28;2929;-49
2023/12/13 02:30:58;;;;;;;;;;;;;;;19.67;37.06;94268.25;10465705;28;2840;-46
2023/12/13 02:35:59;;;;;;;;;;;;;;;19.66;37.09;94271.19;10462534;28;2916;-48
2023/12/13 02:40:59;;;;;;;;;;;;;;;19.65;37.09;94269.63;10465518;28;4885;-47
2023/12/13 02:46:00;;;;;;;;;;;;;;;19.63;37.11;94269.16;10458385;28;2811;-48
2023/12/13 02:51:00;;;;;;;;;;;;;;;19.62;37.25;94281.50;10457726;28;2997;-46
2023/12/13 02:56:00;;;;;;;;;;;;;;;19.61;37.10;94253.69;10457079;28;3251;-47
2023/12/13 03:01:01;;;;;;;;;;;;;;;19.59;37.30;94258.47;10455228;28;2823;-47
2023/12/13 03:06:01;;;;;;;;;;;;;;;19.56;37.19;94253.81;10460654;28;2833;-49
2023/12/13 03:11:01;;;;;;;;;;;;;;;19.57;36.98;94254.59;10459234;28;2908;-46
2023/12/13 03:16:01;;;;;;;;;;;;;;;19.55;37.24;94241.75;10454222;28;2822;-47
2023/12/13 03:21:02;;;;;;;;;;;;;;;19.54;37.29;94253.31;10461011;28;2909;-46
2023/12/13 03:26:02;;;;;;;;;;;;;;;19.53;37.33;94266.78;10465524;28;2783;-47
2023/12/13 03:31:06;;;;;;;;;;;;;;;19.50;37.31;94268.16;10460288;28;2851;-48
2023/12/13 03:36:12;;;;;;;;;;;;;;;19.50;37.41;94247.13;10462266;28;2910;-47
2023/12/13 03:41:12;;;;;;;;;;;;;;;19.48;37.37;94252.69;10461864;28;4751;-46
2023/12/13 03:46:13;;;;;;;;;;;;;;;19.47;37.37;94238.00;10459278;28;2867;-46
2023/12/13 03:51:13;;;;;;;;;;;;;;;19.46;37.03;94233.81;10455061;28;2831;-45
2023/12/13 03:56:13;;;;;;;;;;;;;;;19.44;37.21;94237.81;10460957;28;2925;-47
2023/12/13 04:01:13;;;;;;;;;;;;;;;19.43;37.24;94241.53;10464796;28;2838;-47
2023/12/13 04:06:14;;;;;;;;;;;;;;;19.41;37.22;94241.81;10465276;28;2881;-47
2023/12/13 04:11:14;;;;;;;;;;;;;;;19.41;37.21;94244.47;10453863;28;2837;-47
2023/12/13 04:16:14;;;;;;;;;;;;;;;19.40;37.41;94237.66;10459825;28;2778;-48
2023/12/13 04:21:15;;;;;;;;;;;;;;;19.38;37.42;94242.44;10454120;28;2853;-46
2023/12/13 04:26:15;;;;;;;;;;;;;;;19.37;37.28;94238.25;10461072;28;2897;-48
2023/12/13 04:31:15;;;;;;;;;;;;;;;19.37;37.28;94238.25;10454269;28;2880;-45
2023/12/13 04:36:15;;;;;;;;;;;;;;;19.36;37.42;94228.84;10460717;28;2808;-45
2023/12/13 04:41:15;;;;;;;;;;;;;;;19.36;37.37;94220.16;10457238;28;4977;-44
2023/12/13 04:46:16;;;;;;;;;;;;;;;19.34;37.48;94217.06;10462894;28;2895;-46
2023/12/13 04:51:16;;;;;;;;;;;;;;;19.33;37.42;94212.88;10452018;28;2902;-45
2023/12/13 04:56:16;;;;;;;;;;;;;;;19.31;37.38;94215.78;10461439;28;2828;-46
2023/12/13 05:01:17;;;;;;;;;;;;;;;19.31;37.42;94226.28;10466180;28;2768;-46
2023/12/13 05:06:17;;;;;;;;;;;;;;;19.31;37.31;94226.28;10458086;28;2815;-46
2023/12/13 05:11:17;;;;;;;;;;;;;;;19.34;37.50;94217.84;10460284;28;2803;-50
2023/12/13 05:16:18;;;;;;;;;;;;;;;19.37;37.50;94211.97;10458068;28;2859;-50
2023/12/13 05:21:18;;;;;;;;;;;;;;;19.45;37.78;94205.97;10465649;28;2866;-48
2023/12/13 05:26:18;;;;;;;;;;;;;;;19.54;37.72;94205.28;10453407;28;2919;-46
2023/12/13 05:31:19;;;;;;;;;;;;;;;19.60;37.60;94191.66;10467405;28;2788;-46
2023/12/13 05:36:19;;;;;;;;;;;;;;;19.67;37.71;94188.59;10458220;28;2868;-46
2023/12/13 05:41:20;;;;;;;;;;;;;;;19.73;37.78;94187.38;10466274;28;4901;-46
2023/12/13 05:46:20;;;;;;;;;;;;;;;19.80;37.55;94182.47;10464460;28;3080;-48
2023/12/13 05:51:20;;;;;;;;;;;;;;;19.81;37.63;94176.88;10465734;28;2796;-48
2023/12/13 05:56:21;;;;;;;;;;;;;;;19.86;37.45;94171.50;10466103;28;2823;-45
2023/12/13 06:01:22;;;;;;;;;;;;;;;19.89;37.46;94164.84;10468346;28;2838;-46
2023/12/13 06:06:22;;;;;;;;;;;;;;;19.93;37.64;94171.03;10462424;28;2803;-50
2023/12/13 06:11:22;;;;;;;;;;;;;;;19.96;37.54;94167.78;10458791;28;2887;-48
2023/12/13 06:16:22;;;;;;;;;;;;;;;20.01;37.27;94170.28;10469709;28;2910;-46
2023/12/13 06:21:23;;;;;;;;;;;;;;;20.03;37.60;94181.28;10473806;28;2830;-50
2023/12/13 06:26:23;;;;;;;;;;;;;;;20.05;37.27;94179.13;10464386;28;2869;-49
2023/12/13 06:31:24;;;;;;;;;;;;;;;20.06;37.62;94172.75;10460256;28;2803;-46
2023/12/13 06:36:24;;;;;;;;;;;;;;;20.09;37.23;94164.28;10470937;28;2930;-45
2023/12/13 06:41:24;;;;;;;;;;;;;;;20.14;37.15;94169.38;10459723;28;4976;-45
2023/12/13 06:46:25;;;;;;;;;;;;;;;20.16;37.24;94152.19;10465226;28;2858;-50
2023/12/13 06:51:25;;;;;;;;;;;;;;;20.19;37.28;94154.25;10465373;28;2828;-48
2023/12/13 06:56:25;;;;;;;;;;;;;;;20.22;37.45;94155.47;10468893;28;2843;-48
2023/12/13 07:01:26;;;;;;;;;;;;;;;20.23;37.50;94157.81;10468939;28;2921;-45
2023/12/13 07:06:26;;;;;;;;;;;;;;;20.22;37.04;94153.63;10463919;28;2902;-45
2023/12/13 07:11:26;;;;;;;;;;;;;;;20.26;36.96;94148.50;10468348;28;2782;-45
2023/12/13 07:16:26;;;;;;;;;;;;;;;20.26;37.46;94145.88;10465483;28;3165;-45
2023/12/13 07:21:27;;;;;;;;;;;;;;;20.30;36.86;94138.16;10456364;28;2817;-48
2023/12/13 07:26:27;;;;;;;;;;;;;;;20.30;37.23;94136.28;10459437;28;2777;-49
2023/12/13 07:31:27;;;;;;;;;;;;;;;20.33;37.56;94125.16;10464992;28;2782;-49
2023/12/13 07:36:27;;;;;;;;;;;;;;;20.37;37.68;94125.28;10462690;28;2819;-48
2023/12/13 07:41:28;;;;;;;;;;;;;;;20.40;37.90;94124.69;10459038;28;4846;-49
2023/12/13 07:46:28;;;;;;;;;;;;;;;20.41;38.07;94119.09;10458667;28;2860;-48
2023/12/13 07:51:34;;;;;;;;;;;;;;;20.43;38.06;94124.81;10457205;28;2843;-47
2023/12/13 07:56:35;;;;;;;;;;;;;;;20.45;37.93;94129.78;10456963;28;2816;-47
2023/12/13 08:01:35;;;;;;;;;;;;;;;20.45;38.04;94120.03;10452087;28;2828;-46
2023/12/13 08:06:36;;;;;;;;;;;;;;;20.48;38.02;94127.31;10452878;28;2884;-49
2023/12/13 08:11:36;;;;;;;;;;;;;;;20.48;37.57;94121.25;10459510;28;2850;-48
2023/12/13 08:16:37;;;;;;;;;;;;;;;20.51;37.65;94124.03;10471526;28;2936;-50
2023/12/13 08:21:40;;;;;;;;;;;;;;;20.50;37.75;94116.47;10453278;28;2913;-47
2023/12/13 08:26:41;;;;;;;;;;;;;;;20.51;37.37;94112.72;10452106;28;2827;-47
2023/12/13 08:31:41;;;;;;;;;;;;;;;20.49;37.65;94120.94;10446955;28;2903;-48
2023/12/13 08:36:42;;;;;;;;;;;;;;;20.50;37.20;94127.78;10447449;28;2924;-48
2023/12/13 08:41:42;;;;;;;;;;;;;;;20.50;37.12;94116.47;10456125;28;4837;-47
2023/12/13 08:46:42;;;;;;;;;;;;;;;20.52;36.56;94106.41;10451806;28;2913;-47
2023/12/13 08:51:43;;;;;;;;;;;;;;;20.52;37.17;94094.00;10452707;28;2884;-47
2023/12/13 08:56:43;;;;;;;;;;;;;;;20.53;36.98;94100.81;10456098;28;2814;-48
2023/12/13 09:01:43;;;;;;;;;;;;;;;20.52;37.10;94099.28;10457954;28;2802;-46
2023/12/13 09:06:43;;;;;;;;;;;;;;;20.53;37.06;94095.53;10457125;28;2913;-46
2023/12/13 09:11:46;;;;;;;;;;;;;;;20.54;37.23;94101.59;10459772;28;2804;-48
2023/12/13 09:16:46;;;;;;;;;;;;;;;20.55;37.16;94093.38;10450706;28;2835;-46
2023/12/13 09:21:46;;;;;;;;;;;;;;;20.58;37.01;94090.13;10456406;28;2864;-46
2023/12/13 09:26:47;;;;;;;;;;;;;;;20.59;36.63;94075.88;10448254;28;2868;-47
2023/12/13 09:31:47;;;;;;;;;;;;;;;20.59;36.96;94075.09;10447973;28;2979;-46
2023/12/13 09:36:48;;;;;;;;;;;;;;;20.59;37.07;94080.34;10448771;28;2903;-47
2023/12/13 09:41:54;;;;;;;;;;;;;;;20.59;36.82;94086.41;10458964;28;2834;-48
2023/12/13 09:46:54;;;;;;;;;;;;;;;20.59;36.88;94078.50;10447607;28;2894;-46
2023/12/13 09:51:54;;;;;;;;;;;;;;;20.58;37.09;94076.19;10487327;28;2872;-45
2023/12/13 09:56:55;;;;;;;;;;;;;;;20.60;36.99;94080.06;10457896;28;3199;-47
2023/12/13 10:01:58;;;;;;;;;;;;;;;20.63;37.15;94089.94;10458278;28;2876;-46
2023/12/13 10:06:59;;;;;;;;;;;;;;;20.63;37.09;94089.94;10454678;28;2855;-49
2023/12/13 10:11:59;;;;;;;;;;;;;;;20.64;37.00;94086.25;10458866;28;2789;-46
2023/12/13 10:16:59;;;;;;;;;;;;;;;20.66;36.77;94085.91;10485428;28;2983;-48
2023/12/13 10:21:59;;;;;;;;;;;;;;;20.67;36.69;94085.59;10463047;28;2866;-47
2023/12/13 10:27:00;;;;;;;;;;;;;;;20.69;36.70;94080.03;10454970;28;2794;-47
2023/12/13 10:32:00;;;;;;;;;;;;;;;20.68;36.78;94076.63;10456775;28;2857;-48
2023/12/13 10:37:00;;;;;;;;;;;;;;;20.67;36.95;94064.53;10461053;28;2818;-46
2023/12/13 10:42:01;;;;;;;;;;;;;;;20.70;37.17;94063.94;10462631;28;4790;-47
2023/12/13 10:47:01;;;;;;;;;;;;;;;20.71;36.96;94070.72;10483517;28;2925;-47
2023/12/13 10:52:04;;;;;;;;;;;;;;;20.73;36.84;94068.56;10457036;28;2854;-48
2023/12/13 10:57:05;;;;;;;;;;;;;;;20.73;37.20;94057.25;10465350;28;2779;-51
2023/12/13 11:02:05;;;;;;;;;;;;;;;20.72;37.43;94048.59;10459999;28;2835;-46
2023/12/13 11:07:06;;;;;;;;;;;;;;;20.74;37.18;94041.16;10453531;28;2879;-49
2023/12/13 11:12:09;;;;;;;;;;;;;;;20.76;37.36;94041.59;10450763;28;2793;-46
2023/12/13 11:17:10;;;;;;;;;;;;;;;20.79;37.49;94040.97;10455911;28;2859;-46
2023/12/13 11:22:10;;;;;;;;;;;;;;;20.81;37.70;94038.03;10471537;28;2762;-47
2023/12/13 11:27:12;;;;;;;;;;;;;;;20.83;37.61;94039.28;10456636;28;2860;-46
2023/12/13 11:32:12;;;;;;;;;;;;;;;20.84;37.95;94038.16;10455905;28;2911;-52
2023/12/13 11:37:13;;;;;;;;;;;;;;;20.90;38.02;94028.22;10456420;28;2839;-47
2023/12/13 11:42:15;;;;;;;;;;;;;;;20.97;39.32;94031.16;10452941;28;4624;-45
2023/12/13 11:47:15;;;;;;;;;;;;;;;20.99;38.94;94031.59;10451962;28;2760;-48
2023/12/13 11:52:17;;;;;;;;;;;;;;;21.01;38.89;94030.19;10454999;28;2980;-45
2023/12/13 11:57:18;;;;;;;;;;;;;;;20.98;38.68;94032.69;10489653;28;2831;-46
2023/12/13 12:02:21;;;;;;;;;;;;;;;21.00;38.95;94025.22;10460279;28;2924;-48
2023/12/13 12:07:21;;;;;;;;;;;;;;;20.98;38.17;94030.81;10484223;28;2930;-47
2023/12/13 12:12:22;;;;;;;;;;;;;;;20.95;37.49;94023.56;10465255;28;2835;-47
2023/12/13 12:17:24;;;;;;;;;;;;;;;20.94;36.92;94022.00;10453826;28;2881;-46
2023/12/13 12:22:24;;;;;;;;;;;;;;;20.90;37.09;94026.38;10459022;28;2804;-45
2023/12/13 12:27:25;;;;;;;;;;;;;;;20.88;37.52;94019.84;10453178;28;2832;-50
2023/12/13 12:32:28;;;;;;;;;;;;;;;20.88;38.06;94018.00;10456996;28;2786;-45
2023/12/13 12:37:28;;;;;;;;;;;;;;;20.92;37.96;94021.56;10458958;28;2789;-48
2023/12/13 12:42:28;;;;;;;;;;;;;;;20.92;37.93;94023.41;10451579;28;4858;-52
2023/12/13 12:47:29;;;;;;;;;;;;;;;20.94;37.99;94024.63;10448965;28;2782;-50
2023/12/13 12:52:29;;;;;;;;;;;;;;;20.97;37.66;94031.16;10463584;28;2855;-49
2023/12/13 12:57:29;;;;;;;;;;;;;;;20.97;38.08;94025.88;10456443;28;3141;-49
2023/12/13 13:02:30;;;;;;;;;;;;;;;20.95;38.12;94023.56;10449166;28;2945;-46
2023/12/13 13:07:30;;;;;;;;;;;;;;;20.96;37.98;94017.19;10454160;28;2774;-52
2023/12/13 13:12:30;;;;;;;;;;;;;;;20.96;38.17;94030.38;10462668;28;3015;-49
2023/12/13 13:17:31;;;;;;;;;;;;;;;20.92;38.25;94018.91;10460165;28;2831;-52
2023/12/13 13:22:31;;;;;;;;;;;;;;;20.89;37.95;94014.31;10456291;28;2924;-49
2023/12/13 13:27:32;;;;;;;;;;;;;;;20.87;38.23;94016.47;10459041;28;2825;-50
2023/12/13 13:32:32;;;;;;;;;;;;;;;20.86;38.09;94024.66;10455383;28;2791;-47
2023/12/13 13:37:35;;;;;;;;;;;;;;;20.85;37.73;94018.66;10453454;28;2832;-45
2023/12/13 13:42:35;;;;;;;;;;;;;;;20.82;37.93;94018.50;10460391;28;4747;-48
2023/12/13 13:47:35;;;;;;;;;;;;;;;20.82;37.91;94015.84;10446211;28;2819;-48
2023/12/13 13:52:36;;;;;;;;;;;;;;;20.79;37.57;94019.88;10439868;28;2791;-49
2023/12/13 13:57:36;;;;;;;;;;;;;;;20.76;37.81;94022.38;10441410;28;2932;-49
2023/12/13 14:02:36;;;;;;;;;;;;;;;20.74;37.61;94019.31;10432960;28;2862;-49
2023/12/13 14:07:39;;;;;;;;;;;;;;;19.80;36.80;94020.22;10444966;28;2970;-53
2023/12/13 14:12:39;;;;;;;;;;;;;;;19.02;37.84;94025.63;10436767;28;3078;-47
2023/12/13 14:17:39;;;;;;;;;;;;;;;19.01;37.89;94026.72;10434996;28;2957;-47
2023/12/13 14:22:41;;;;;;;;;;;;;;;19.31;37.81;94034.50;10470757;28;2854;-50
2023/12/13 14:27:41;;;;;;;;;;;;;;;19.48;37.96;94031.94;10441320;28;2890;-51
2023/12/13 14:32:43;;;;;;;;;;;;;;;19.64;38.08;94032.25;10440832;28;3011;-48
2023/12/13 14:37:43;;;;;;;;;;;;;;;19.76;38.29;94034.28;10447375;28;2784;-49
2023/12/13 14:42:44;;;;;;;;;;;;;;;19.88;38.20;94040.50;10463373;28;4850;-50
2023/12/13 14:47:44;;;;;;;;;;;;;;;19.99;38.39;94033.81;10450957;28;3214;-49
2023/12/13 14:52:45;;;;;;;;;;;;;;;20.10;37.91;94052.69;10449731;28;2784;-50
2023/12/13 14:57:45;;;;;;;;;;;;;;;20.17;37.83;94048.50;10456966;28;2852;-49
2023/12/13 15:02:46;;;;;;;;;;;;;;;20.25;37.77;94057.50;10456790;28;2910;-49
2023/12/13 15:07:48;;;;;;;;;;;;;;;20.33;37.85;94054.09;10456334;28;2872;-48
2023/12/13 15:12:49;;;;;;;;;;;;;;;20.39;37.95;94042.31;10458869;28;2874;-52
2023/12/13 15:17:49;;;;;;;;;;;;;;;20.45;37.37;94037.66;10460987;28;2923;-50
2023/12/13 15:22:49;;;;;;;;;;;;;;;20.48;37.85;94037.81;10463388;28;2786;-49
2023/12/13 15:27:50;;;;;;;;;;;;;;;20.51;37.53;94045.06;10462223;28;2835;-48
2023/12/13 15:32:50;;;;;;;;;;;;;;;20.54;37.74;94047.09;10459299;28;2842;-51
2023/12/13 15:37:50;;;;;;;;;;;;;;;20.57;37.65;94059.63;10457579;28;2851;-50
2023/12/13 15:42:50;;;;;;;;;;;;;;;20.59;37.72;94067.97;10457634;28;4889;-49
2023/12/13 15:47:51;;;;;;;;;;;;;;;20.62;37.44;94072.63;10458592;28;2843;-51
2023/12/13 15:52:51;;;;;;;;;;;;;;;20.66;37.42;94062.22;10454801;28;2913;-50
2023/12/13 15:57:51;;;;;;;;;;;;;;;20.67;37.41;94066.41;10459748;28;2844;-50
2023/12/13 16:02:52;;;;;;;;;;;;;;;20.66;37.35;94068.28;10455571;28;2775;-51
2023/12/13 16:07:52;;;;;;;;;;;;;;;20.70;37.40;94077.09;10460277;28;2971;-50
2023/12/13 16:12:52;;;;;;;;;;;;;;;20.72;37.60;94071.50;10459995;28;2908;-49
2023/12/13 16:17:52;;;;;;;;;;;;;;;20.73;37.35;94068.56;10455039;28;3160;-49
2023/12/13 16:22:53;;;;;;;;;;;;;;;20.72;37.81;94061.75;10465069;28;3009;-52
2023/12/13 16:27:53;;;;;;;;;;;;;;;20.77;37.51;94072.09;10454633;28;2921;-50
2023/12/13 16:32:53;;;;;;;;;;;;;;;20.79;37.65;94071.81;10458732;28;2873;-52
2023/12/13 16:37:54;;;;;;;;;;;;;;;20.80;37.58;94073.34;10456746;28;2831;-51
2023/12/13 16:42:55;;;;;;;;;;;;;;;20.81;37.42;94073.00;10455894;28;4920;-49
2023/12/13 16:47:55;;;;;;;;;;;;;;;20.81;37.35;94075.66;10449696;28;3165;-51
2023/12/13 16:52:56;;;;;;;;;;;;;;;20.84;37.84;94071.63;10457533;28;2848;-46
2023/12/13 16:57:56;;;;;;;;;;;;;;;20.85;37.93;94071.31;10452141;28;3152;-48
2023/12/13 17:02:59;;;;;;;;;;;;;;;20.85;38.44;94070.53;10490481;28;2823;-51
2023/12/13 17:07:59;;;;;;;;;;;;;;;20.86;38.54;94072.06;10446911;28;2835;-49
2023/12/13 17:12:59;;;;;;;;;;;;;;;20.86;38.61;94072.84;10461551;28;2831;-46
2023/12/13 17:17:59;;;;;;;;;;;;;;;20.86;38.57;94072.06;10459926;28;2779;-48
2023/12/13 17:23:00;;;;;;;;;;;;;;;20.87;38.03;94084.94;10459362;28;2853;-47
2023/12/13 17:28:00;;;;;;;;;;;;;;;20.90;38.38;94088.78;10462868;28;2810;-47
2023/12/13 17:33:00;;;;;;;;;;;;;;;20.87;38.54;94087.59;10456870;28;3125;-48
2023/12/13 17:38:01;;;;;;;;;;;;;;;20.91;38.52;94099.03;10461747;28;2879;-46
2023/12/13 17:43:01;;;;;;;;;;;;;;;20.92;38.77;94107.69;10455194;28;4841;-46
2023/12/13 17:48:01;;;;;;;;;;;;;;;20.93;38.57;94120.56;10458830;28;3094;-46
2023/12/13 17:53:05;;;;;;;;;;;;;;;20.95;39.33;94123.66;10459527;28;2784;-48
2023/12/13 17:58:05;;;;;;;;;;;;;;;20.99;40.76;94129.06;10459671;28;2813;-48
2023/12/13 18:03:05;;;;;;;;;;;;;;;21.00;40.44;94138.50;10453954;28;2958;-50
2023/12/13 18:08:06;;;;;;;;;;;;;;;20.99;40.55;94134.34;10460246;28;2906;-51
2023/12/13 18:13:06;;;;;;;;;;;;;;;21.00;39.49;94139.28;10467934;28;2846;-48
2023/12/13 18:18:06;;;;;;;;;;;;;;;21.01;39.72;94143.47;10477424;28;2785;-48
2023/12/13 18:23:06;;;;;;;;;;;;;;;21.01;39.32;94143.47;10484501;28;2809;-50
2023/12/13 18:28:07;;;;;;;;;;;;;;;21.00;39.38;94151.66;10470370;28;3188;-50
2023/12/13 18:33:07;;;;;;;;;;;;;;;21.02;38.77;94162.69;10474296;28;2844;-51
2023/12/13 18:38:07;;;;;;;;;;;;;;;21.01;39.38;94163.78;10478016;28;2863;-52
2023/12/13 18:43:08;;;;;;;;;;;;;;;21.03;38.84;94172.94;10474444;28;4900;-45
2023/12/13 18:48:09;;;;;;;;;;;;;;;21.03;39.30;94182.69;10467281;28;2862;-46
2023/12/13 18:53:09;;;;;;;;;;;;;;;21.03;39.90;94188.75;10499218;28;2772;-49
2023/12/13 18:58:10;;;;;;;;;;;;;;;21.05;38.57;94202.38;10471087;28;2842;-46
2023/12/13 19:03:11;;;;;;;;;;;;;;;21.03;39.59;94212.47;10506415;27;2871;-49
2023/12/13 19:08:11;;;;;;;;;;;;;;;21.04;39.52;94215.88;10475116;28;2918;-49
2023/12/13 19:13:11;;;;;;;;;;;;;;;21.05;39.54;94212.91;10467216;28;3002;-51
2023/12/13 19:18:12;;;;;;;;;;;;;;;21.06;39.48;94214.44;10464066;28;2810;-50
2023/12/13 19:23:13;;;;;;;;;;;;;;;21.06;38.55;94224.22;10465173;28;2879;-49
2023/12/13 19:28:15;;;;;;;;;;;;;;;21.08;39.90;94224.69;10468405;28;2847;-47
2023/12/13 19:33:15;;;;;;;;;;;;;;;21.05;40.63;94243.75;10457007;28;2833;-50
2023/12/13 19:38:15;;;;;;;;;;;;;;;21.10;40.00;94248.09;10465179;28;2806;-49
2023/12/13 19:43:16;;;;;;;;;;;;;;;21.05;40.68;94257.69;10461861;28;4829;-55
2023/12/13 19:48:16;;;;;;;;;;;;;;;21.13;38.53;94258.00;10465822;28;2881;-47
2023/12/13 19:53:16;;;;;;;;;;;;;;;21.12;37.98;94270.41;10468004;28;2886;-49
2023/12/13 19:58:17;;;;;;;;;;;;;;;21.12;38.58;94272.25;10462529;28;2748;-46
2023/12/13 20:03:17;;;;;;;;;;;;;;;21.08;38.69;94275.50;10461771;28;2883;-52
2023/12/13 20:08:20;;;;;;;;;;;;;;;21.10;37.94;94279.72;10454386;28;2830;-47
2023/12/13 20:13:20;;;;;;;;;;;;;;;21.08;38.62;94283.41;10457611;28;2869;-50
2023/12/13 20:18:22;;;;;;;;;;;;;;;21.08;38.48;94279.25;10465937;28;3160;-48
2023/12/13 20:23:22;;;;;;;;;;;;;;;21.08;38.97;94289.78;10460729;28;2784;-50
2023/12/13 20:28:23;;;;;;;;;;;;;;;21.08;38.91;94284.50;10463307;28;2806;-51
2023/12/13 20:33:23;;;;;;;;;;;;;;;21.09;38.58;94294.72;10490942;28;2927;-49
2023/12/13 20:38:23;;;;;;;;;;;;;;;21.10;38.45;94292.88;10460596;28;2803;-50
2023/12/13 20:43:24;;;;;;;;;;;;;;;21.10;39.26;94295.50;10462617;28;4823;-51
2023/12/13 20:48:24;;;;;;;;;;;;;;;21.10;38.17;94303.41;10458452;28;2958;-50
2023/12/13 20:53:24;;;;;;;;;;;;;;;21.06;39.44;94309.28;10462184;28;2791;-48
2023/12/13 20:58:24;;;;;;;;;;;;;;;21.05;39.65;94307.75;10456648;28;2906;-51
2023/12/13 21:03:25;;;;;;;;;;;;;;;21.04;38.73;94313.34;10463630;28;2906;-47
2023/12/13 21:08:25;;;;;;;;;;;;;;;21.04;38.95;94314.09;10454287;28;2875;-53
2023/12/13 21:13:25;;;;;;;;;;;;;;;21.00;39.29;94323.69;10451995;28;2807;-49
2023/12/13 21:18:25;;;;;;;;;;;;;;;20.98;39.34;94322.44;10458464;28;2869;-48
2023/12/13 21:23:27;;;;;;;;;;;;;;;20.94;39.19;94330.19;10453217;28;2942;-51
2023/12/13 21:28:27;;;;;;;;;;;;;;;20.94;39.17;94337.31;10465840;28;2854;-49
2023/12/13 21:33:27;;;;;;;;;;;;;;;20.93;39.26;94333.13;10456139;28;2786;-49
2023/12/13 21:38:28;;;;;;;;;;;;;;;20.90;39.71;94341.66;10456507;28;2862;-48
2023/12/13 21:43:31;;;;;;;;;;;;;;;20.88;38.85;94341.97;10450970;28;4826;-50
2023/12/13 21:48:32;;;;;;;;;;;;;;;20.88;38.58;94349.88;10453025;28;2896;-47
2023/12/13 21:53:32;;;;;;;;;;;;;;;20.83;38.73;94352.66;10461214;28;2788;-50
2023/12/13 21:58:32;;;;;;;;;;;;;;;20.81;38.84;94351.41;10466274;28;2876;-48
2023/12/13 22:03:33;;;;;;;;;;;;;;;20.77;38.81;94361.75;10459671;28;2801;-50
2023/12/13 22:08:36;;;;;;;;;;;;;;;20.75;38.78;94363.19;10456360;28;2855;-52
2023/12/13 22:13:38;;;;;;;;;;;;;;;20.73;38.83;94373.25;10457814;28;2854;-46
2023/12/13 22:18:39;;;;;;;;;;;;;;;20.70;39.10;94382.53;10458437;28;2815;-51
2023/12/13 22:23:40;;;;;;;;;;;;;;;20.68;38.84;94383.91;10462349;28;2842;-49
2023/12/13 22:28:41;;;;;;;;;;;;;;;20.64;38.64;94380.34;10466045;28;2775;-48
2023/12/13 22:33:41;;;;;;;;;;;;;;;20.62;39.00;94385.91;10456242;28;2858;-46
2023/12/13 22:38:41;;;;;;;;;;;;;;;20.60;39.07;94382.81;10470269;28;2816;-48
2023/12/13 22:43:41;;;;;;;;;;;;;;;20.58;38.96;94387.59;10457125;28;4958;-47
2023/12/13 22:48:42;;;;;;;;;;;;;;;20.55;38.83;94395.31;10466490;28;2890;-49
2023/12/13 22:53:42;;;;;;;;;;;;;;;20.52;38.85;94394.09;10458427;28;2853;-47
2023/12/13 22:58:42;;;;;;;;;;;;;;;20.54;38.59;94405.09;10455583;28;2818;-52
2023/12/13 23:03:42;;;;;;;;;;;;;;;20.52;38.39;94415.16;10456379;28;2821;-48
2023/12/13 23:08:43;;;;;;;;;;;;;;;20.48;38.67;94410.81;10455183;28;2942;-47
2023/12/13 23:13:43;;;;;;;;;;;;;;;20.47;38.52;94417.13;10464721;28;2826;-49
2023/12/13 23:18:43;;;;;;;;;;;;;;;20.46;38.25;94418.22;10453090;28;2894;-47
2023/12/13 23:23:43;;;;;;;;;;;;;;;20.43;38.49;94431.97;10459230;28;3153;-49
2023/12/13 23:28:44;;;;;;;;;;;;;;;20.39;38.49;94429.19;10463963;28;2830;-48
2023/12/13 23:33:44;;;;;;;;;;;;;;;20.38;38.33;94435.50;10457444;28;2928;-50
2023/12/13 23:38:44;;;;;;;;;;;;;;;20.34;38.50;94439.84;10461367;28;2861;-51
2023/12/13 23:43:44;;;;;;;;;;;;;;;20.33;38.32;94450.66;10455378;28;4833;-48
2023/12/13 23:48:47;;;;;;;;;;;;;;;20.30;38.54;94459.19;10450445;28;2902;-49
2023/12/13 23:53:47;;;;;;;;;;;;;;;20.28;38.13;94457.63;10448844;28;2931;-49
2023/12/13 23:58:47;;;;;;;;;;;;;;;20.25;38.31;94468.75;10452915;28;2941;-47
